Royal Lakes, Illinois
Current Conditions -  °F | °C
As of 11:45 AM on Monday 24 Nov 2014 (Local Time) from KALN Reporting Station
Overcast Overcast  
Wind Chill: 30°   Ceiling: 3300
Heat Index: 39°   Visibility: 10mi
Dew Point: 27°   Wind: 17mph
Humidity: 61%   Direction: 260°W
Pressure: 29.68"   Gusts: 31mph
Location:  39.138°N, 90.0562°W
Report Text: KALN 241745Z 26015G27KT 10SM OVC033 04/M03 A2968
Loading
Personal Weather Stations






























Interactive Weather Map New forecast layout! Learn more

10-Day Weather Forecast

Advertisements
Track Severe Weather on mobile